KJEF/JEF METAR and TAF weather

Enter ICAO airport designator
Station Type Date Time Source
KJEF METAR 2019/04/25 09:53 UTC NOAA

KJEF 250953Z AUTO 00000KT 1/2SM FG VV003 14/13 A2978 RMK AO2 SLP074 T01390133


Station Type Date Time Source
KJEF Decoded METAR 2019/04/25 09:53 UTC NOAA

JEFFERSON CITY MEMORIAL AIRPORT , MO, United States (KJEF) 38-36N 92-09W 168M
Apr 25, 2019 - 05:53 AM EDT / 2019.04.25 0953 UTC
Wind: Calm:0
Visibility: 1/2 mile(s):0
Sky conditions: obscured
Weather: fog
Temperature: 57.0 F (13.9 C)
Dew Point: 55.9 F (13.3 C)
Relative Humidity: 96%
Pressure (altimeter): 29.78 in. Hg (1008 hPa)
ob: KJEF 250953Z AUTO 00000KT 1/2SM FG VV003 14/13 A2978 RMK AO2 SLP074 T01390133
cycle: 10

Station Type Date Time Source
KJEF TAF UTC NOAA

Error!

Example: see airport list